Latest Weather Observations for Toowoomba

IDQ60801

Issued at 10:02 am EST Tuesday 7 July 2015 (issued every 30 minutes, with the page automatically refreshed every 10 minutes)

About weather observations | Map of weather stations | Latest weather observations for QLD | Other Formats
Station Details ID: 041529 Name: TOOWOOMBA AIRPORT Lat: -27.54 Lon: 151.91 Height: 640.9 m
Data from the previous 72 hours. | See also: Recent months at Toowoomba
Date/Time
EST
Temp
°C
App
Temp
°C
Dew
Point
Rel
Hum
%
Delta-T
°C
Wind Press
QNH
hPa
Press
MSL
hPa
Rain
since 9 am
mm
Dir
 
Spd
km/h
Gust
km/h
Spd
kts
Gust
kts
07/10:00am 11.7 6.7 1.4 49 4.5 SW 17 24 9 13 1021.2 1020.8 0.0
07/09:30am 10.1 6.2 3.4 63 3.0 WSW 13 19 7 10 1021.5 1021.1 0.0
07/09:00am 9.3 6.1 4.9 74 2.0 W 11 15 6 8 1021.3 1020.9 0.0
07/08:30am 8.2 5.4 5.1 81 1.4 WNW 9 11 5 6 1021.1 1020.7 0.0
07/08:00am 7.4 4.6 5.0 85 1.1 WNW 9 11 5 6 1020.9 1020.5 0.0
07/07:30am 6.2 2.9 4.4 88 0.8 NW 11 13 6 7 1020.7 1020.2 0.0
07/07:00am 5.6 2.5 3.4 86 1.0 WNW 9 9 5 5 1020.4 1019.9 0.0
07/06:00am 6.4 3.4 4.1 85 1.0 NW 9 13 5 7 1019.7 1019.3 0.0
07/05:30am 6.4 3.0 4.1 85 1.0 NW 11 13 6 7 1019.4 1018.9 0.0
07/05:00am 6.5 3.0 3.7 82 1.2 NW 11 13 6 7 1019.1 1018.6 0.0
07/04:30am 7.3 3.9 3.9 79 1.5 W 11 15 6 8 1019.0 1018.5 0.0
07/04:00am 7.0 3.6 3.8 80 1.4 WNW 11 13 6 7 1018.9 1018.4 0.0
07/03:30am 7.6 4.7 4.7 82 1.3 WNW 9 11 5 6 1018.9 1018.4 0.0
07/03:00am 7.7 4.4 4.7 81 1.4 W 11 13 6 7 1019.1 1018.6 0.0
07/02:30am 7.8 4.9 4.7 81 1.4 W 9 13 5 7 1019.2 1018.7 0.0
07/02:00am 8.1 4.9 5.0 81 1.4 WNW 11 11 6 6 1019.2 1018.7 0.0
07/01:30am 8.3 5.4 4.9 79 1.6 NW 9 11 5 6 1019.3 1018.8 0.0
07/01:00am 8.6 5.8 5.2 79 1.6 NW 9 13 5 7 1019.2 1018.7 0.0
07/12:30am 9.3 8.2 5.3 76 1.9 CALM 0 6 0 3 1019.1 1018.6 0.0
07/12:00am 9.5 7.3 5.5 76 1.9 WSW 6 7 3 4 1019.3 1018.8 0.0
 
Date/Time
EST
Temp
°C
App
Temp
°C
Dew
Point
Rel
Hum
%
Delta-T
°C
Wind Press
QNH
hPa
Press
MSL
hPa
Rain
since 9 am
mm
Dir
 
Spd
km/h
Gust
km/h
Spd
kts
Gust
kts
06/11:30pm 9.8 7.0 5.2 73 2.2 SW 9 15 5 8 1019.4 1018.9 0.0
06/11:00pm 10.9 7.5 5.7 70 2.5 SW 13 17 7 9 1019.4 1018.9 0.0
06/10:30pm 11.5 7.7 5.8 68 2.7 SW 15 19 8 10 1019.5 1019.1 0.0
06/10:00pm 11.9 8.0 5.5 65 3.1 SW 15 19 8 10 1019.4 1018.9 0.0
06/09:30pm 12.3 8.1 5.7 64 3.2 SW 17 20 9 11 1019.2 1018.7 0.0
06/09:00pm 12.4 8.9 5.6 63 3.3 SW 13 20 7 11 1019.1 1018.6 0.0
06/08:30pm 12.7 8.7 5.1 60 3.6 SW 15 19 8 10 1019.1 1018.6 0.0
06/08:00pm 12.9 9.3 5.1 59 3.7 SW 13 17 7 9 1019.1 1018.6 0.0
06/07:30pm 13.7 10.2 5.3 57 4.1 WSW 13 17 7 9 1018.9 1018.4 0.0
06/07:00pm 14.0 10.5 5.4 56 4.2 W 13 15 7 8 1018.9 1018.4 0.0
06/06:30pm 14.0 10.9 5.4 56 4.2 W 11 15 6 8 1018.7 1018.2 0.0
06/06:00pm 14.2 11.0 5.3 55 4.3 WNW 11 13 6 7 1018.6 1018.1 0.0
06/05:30pm 14.9 11.7 5.1 52 4.8 WNW 11 13 6 7 1018.2 1017.8 0.0
06/05:00pm 16.7 13.2 5.3 47 5.6 WNW 13 17 7 9 1018.0 1017.5 0.0
06/04:30pm 17.6 12.9 5.2 44 6.2 WNW 19 24 10 13 1018.0 1017.5 0.0
06/04:00pm 18.5 13.7 5.4 42 6.6 WNW 20 32 11 17 1018.0 1017.5 0.0
06/03:30pm 18.6 13.8 5.5 42 6.6 W 20 30 11 16 1018.0 1017.5 0.0
06/03:00pm 18.4 12.8 5.6 43 6.5 WNW 24 35 13 19 1018.2 1017.8 0.0
06/02:30pm 19.0 13.1 5.8 42 6.7 W 26 35 14 19 1018.4 1018.0 0.0
06/02:00pm 18.9 13.4 5.7 42 6.7 W 24 33 13 18 1018.4 1018.0 0.0
06/01:30pm 17.5 11.5 5.4 45 6.0 W 26 37 14 20 1018.9 1018.4 0.0
06/01:00pm 19.1 14.2 6.9 45 6.3 WNW 22 32 12 17 1019.1 1018.6 0.0
06/12:30pm 17.7 12.7 6.6 48 5.7 WNW 22 32 12 17 1019.7 1019.3 0.0
06/12:00pm 17.3 11.9 6.2 48 5.6 WNW 24 32 13 17 1020.1 1019.7 0.0
06/11:30am 16.9 11.5 6.4 50 5.3 W 24 32 13 17 1020.7 1020.2 0.0
06/11:00am 16.5 11.3 5.5 48 5.5 WNW 22 30 12 16 1021.0 1020.6 0.0
06/10:30am 16.1 10.9 5.7 50 5.2 WNW 22 30 12 16 1021.3 1020.9 0.0
06/10:00am 15.2 10.7 6.0 54 4.6 NW 19 24 10 13 1021.5 1021.1 0.0
06/09:30am 14.6 10.6 6.7 59 4.0 NW 17 20 9 11 1021.7 1021.3 0.0
06/09:00am 13.3 10.4 6.4 63 3.4 NNW 11 15 6 8 1021.9 1021.4 0.0
06/08:30am 12.6 9.7 6.4 66 3.1 NNW 11 13 6 7 1021.7 1021.3 0.0
06/08:00am 11.5 8.4 5.6 67 2.8 N 11 15 6 8 1021.6 1021.2 0.0
06/07:30am 10.8 7.7 5.6 70 2.5 N 11 15 6 8 1021.5 1021.1 0.0
06/07:00am 9.8 6.2 5.2 73 2.2 N 13 15 7 8 1021.2 1020.8 0.0
06/06:30am 9.7 6.1 5.1 73 2.2 N 13 15 7 8 1021.1 1020.7 0.0
06/06:00am 9.8 6.2 4.8 71 2.3 N 13 17 7 9 1021.0 1020.6 0.0
06/05:30am 9.7 6.1 4.9 72 2.2 N 13 15 7 8 1021.0 1020.6 0.0
06/05:00am 9.8 6.2 4.8 71 2.3 N 13 15 7 8 1021.0 1020.6 0.0
06/04:30am 9.4 6.1 4.4 71 2.3 N 11 13 6 7 1021.2 1020.8 0.0
06/04:00am 9.8 6.1 4.4 69 2.5 N 13 15 7 8 1021.2 1020.8 0.0
06/03:30am 10.0 6.7 4.6 69 2.5 N 11 15 6 8 1021.3 1020.9 0.0
06/03:00am 10.2 6.5 4.6 68 2.6 N 13 15 7 8 1021.3 1020.9 0.0
06/02:30am 10.4 7.1 4.8 68 2.6 N 11 15 6 8 1021.5 1021.1 0.0
06/02:00am 10.4 7.1 4.8 68 2.6 N 11 15 6 8 1021.9 1021.4 0.0
06/01:30am 10.8 7.2 4.9 67 2.8 N 13 17 7 9 1022.1 1021.6 0.0
06/01:00am 10.7 7.1 5.0 68 2.7 N 13 15 7 8 1022.3 1021.9 0.0
06/12:30am 10.9 7.3 5.0 67 2.8 N 13 15 7 8 1022.5 1022.1 0.0
06/12:00am 11.2 8.0 5.3 67 2.8 N 11 15 6 8 1022.5 1022.1 0.0
 
Date/Time
EST
Temp
°C
App
Temp
°C
Dew
Point
Rel
Hum
%
Delta-T
°C
Wind Press
QNH
hPa
Press
MSL
hPa
Rain
since 9 am
mm
Dir
 
Spd
km/h
Gust
km/h
Spd
kts
Gust
kts
05/11:30pm 11.1 8.3 5.2 67 2.8 N 9 11 5 6 1022.5 1022.1 0.0
05/11:00pm 11.0 8.6 5.3 68 2.7 NNW 7 11 4 6 1022.8 1022.4 0.0
05/10:30pm 11.3 8.6 5.8 69 2.7 NNE 9 11 5 6 1022.8 1022.4 0.0
05/10:00pm 9.3 6.5 5.1 75 2.0 NNE 9 9 5 5 1022.6 1022.2 0.0
05/09:30pm 10.4 7.9 4.5 67 2.7 N 7 9 4 5 1022.8 1022.4 0.0
05/09:00pm 12.7 10.3 5.1 60 3.6 N 7 9 4 5 1022.9 1022.5 0.0
05/08:30pm 11.9 9.7 5.5 65 3.1 NNW 6 13 3 7 1022.9 1022.5 0.0
05/08:00pm 12.0 10.8 4.7 61 3.4 CALM 0 0 0 0 1022.6 1022.2 0.0
05/07:30pm 12.0 11.0 5.4 64 3.2 CALM 0 0 0 0 1022.4 1022.0 0.0
05/07:00pm 13.5 11.1 5.2 57 4.0 WNW 7 7 4 4 1022.3 1021.9 0.0
05/06:30pm 14.4 11.9 5.0 53 4.6 WNW 7 9 4 5 1022.2 1021.8 0.0
05/06:00pm 14.7 12.3 5.2 53 4.6 WNW 7 13 4 7 1022.1 1021.6 0.0
05/05:30pm 14.7 12.3 5.2 53 4.6 WNW 7 9 4 5 1022.1 1021.6 0.0
05/05:00pm 15.0 12.5 5.0 51 4.9 W 7 9 4 5 1021.9 1021.4 0.0
05/04:30pm 16.0 12.4 5.0 48 5.4 WNW 13 17 7 9 1021.7 1021.3 0.0
05/04:00pm 17.2 14.0 5.2 45 5.9 WNW 11 17 6 9 1021.7 1021.3 0.0
05/03:30pm 16.4 12.7 4.4 45 5.8 WNW 13 19 7 10 1021.6 1021.2 0.0
05/03:00pm 16.6 12.6 4.9 46 5.7 WNW 15 20 8 11 1021.9 1021.4 0.0
05/02:30pm 17.3 13.4 5.3 45 6.0 W 15 20 8 11 1021.9 1021.4 0.0
05/02:00pm 18.1 14.5 5.0 42 6.5 WNW 13 24 7 13 1022.0 1021.5 0.0
05/01:30pm 16.6 12.2 4.9 46 5.8 WSW 17 20 9 11 1022.2 1021.8 0.0
05/01:00pm 17.4 13.0 4.7 43 6.2 NW 17 26 9 14 1022.4 1022.0 0.0
05/12:30pm 15.8 11.4 4.8 48 5.4 W 17 22 9 12 1023.0 1022.6 0.0
05/12:00pm 16.2 11.5 5.2 48 5.4 WNW 19 26 10 14 1023.4 1023.0 0.0
05/11:30am 15.5 11.2 5.1 50 5.1 NW 17 26 9 14 1024.1 1023.7 0.0
05/11:00am 16.9 12.6 5.2 46 5.8 NW 17 24 9 13 1024.5 1024.1 0.0
05/10:30am 16.1 11.2 5.1 48 5.4 W 20 30 11 16 1024.9 1024.6 0.0
05/10:00am 15.7 11.9 5.6 51 5.0 WNW 15 19 8 10 1024.9 1024.6 0.0
05/09:30am 14.8 11.8 7.6 62 3.7 WNW 13 15 7 8 1025.0 1024.7 0.0
05/09:00am 14.7 12.1 7.7 63 3.6 WNW 11 19 6 10 1024.8 1024.5 0.0
05/08:30am 13.2 11.0 9.3 77 2.0 WNW 11 15 6 8 1024.6 1024.2 0.0
05/08:00am 12.2 12.2 9.9 86 1.2 CALM 0 0 0 0 1024.3 1023.9 0.0
05/07:30am 11.3 10.8 9.4 88 1.0 NW 2 6 1 3 1024.2 1023.8 0.0
05/07:00am 11.0 9.4 8.9 87 1.1 N 7 9 4 5 1023.9 1023.5 0.0
05/06:30am 10.0 8.4 8.8 92 0.6 NNW 7 11 4 6 1023.7 1023.3 0.0
05/06:00am 9.5 8.0 8.3 92 0.6 N 6 7 3 4 1023.1 1022.7 0.0
05/05:30am 9.2 7.5 8.3 94 0.5 NNE 7 9 4 5 1022.9 1022.5 0.0
05/05:00am 9.4 7.8 8.2 92 0.6 NE 6 7 3 4 1022.7 1022.3 0.0
05/04:30am 10.4 8.5 9.0 91 0.7 N 9 11 5 6 1022.6 1022.2 0.0
05/04:00am 11.0 9.6 9.4 90 0.8 N 7 9 4 5 1022.6 1022.2 0.0
05/03:30am 10.2 8.7 8.3 88 1.0 NE 6 6 3 3 1022.9 1022.5 0.0
05/03:00am 10.8 9.4 8.7 87 1.1 NE 6 7 3 4 1022.9 1022.5 0.0
05/02:30am 11.5 9.6 9.2 86 1.2 NE 9 11 5 6 1023.1 1022.7 0.0
05/02:00am 11.5 9.6 9.1 85 1.2 NE 9 13 5 7 1023.3 1022.9 0.0
05/01:30am 11.1 8.7 8.8 86 1.2 NE 11 17 6 9 1023.4 1023.0 0.0
05/01:00am 11.1 8.7 8.5 84 1.3 NE 11 15 6 8 1023.7 1023.3 0.0
05/12:30am 11.3 8.4 8.2 81 1.6 NE 13 19 7 10 1023.8 1023.4 0.0
05/12:00am 10.3 8.3 8.6 89 0.9 ENE 9 15 5 8 1023.9 1023.5 0.0
 
Date/Time
EST
Temp
°C
App
Temp
°C
Dew
Point
Rel
Hum
%
Delta-T
°C
Wind Press
QNH
hPa
Press
MSL
hPa
Rain
since 9 am
mm
Dir
 
Spd
km/h
Gust
km/h
Spd
kts
Gust
kts
04/11:30pm 9.2 6.7 8.1 93 0.5 ESE 11 11 6 6 1023.9 1023.5 0.0
04/11:00pm 8.7 6.8 7.6 93 0.5 E 7 9 4 5 1024.0 1023.6 0.0
04/10:30pm 8.7 6.8 7.5 92 0.6 E 7 9 4 5 1024.0 1023.6 0.0
04/10:00pm 9.4 7.0 7.2 86 1.1 E 9 9 5 5 1024.1 1023.7 0.0
04/09:30pm 9.7 8.5 8.0 89 0.8 W 4 6 2 3 1024.2 1023.8 0.0
04/09:00pm 9.5 7.6 7.4 87 1.0 NW 7 11 4 6 1024.2 1023.8 0.0
04/08:30pm 10.0 8.8 7.9 87 1.0 NE 4 9 2 5 1024.0 1023.6 0.0
04/08:00pm 10.3 8.2 8.2 87 1.1 E 9 9 5 5 1023.9 1023.5 0.0
04/07:30pm 10.9 9.2 8.5 85 1.2 E 7 9 4 5 1023.7 1023.3 0.0
04/07:00pm 11.4 9.4 8.6 83 1.4 E 9 11 5 6 1023.3 1022.9 0.0
04/06:30pm 11.1 8.6 8.3 83 1.4 E 11 13 6 7 1022.8 1022.4 0.0
04/06:00pm 11.8 9.4 8.8 82 1.5 ESE 11 13 6 7 1022.6 1022.2 0.0
04/05:30pm 12.5 9.7 8.6 77 2.0 E 13 15 7 8 1022.4 1022.0 0.0
04/05:00pm 14.1 11.3 8.7 70 2.8 ENE 13 17 7 9 1022.1 1021.6 0.0
04/04:30pm 15.4 12.1 7.9 61 3.9 E 15 17 8 9 1022.1 1021.6 0.0
04/04:00pm 16.8 14.2 7.7 55 4.7 E 11 15 6 8 1022.1 1021.6 0.0
04/03:30pm 17.8 16.4 7.2 50 5.5 SW 4 7 2 4 1022.3 1021.9 0.0
04/03:00pm 17.7 15.6 6.6 48 5.7 ENE 7 13 4 7 1022.4 1022.0 0.0
04/02:30pm 17.3 14.7 6.2 48 5.6 SE 9 17 5 9 1022.5 1022.1 0.0
04/02:00pm 18.6 16.6 6.4 45 6.2 NW 6 13 3 7 1022.6 1022.2 0.0
04/01:30pm 17.9 15.5 7.0 49 5.6 NNW 9 13 5 7 1022.8 1022.4 0.0
04/01:00pm 16.4 14.8 7.9 57 4.4 W 6 11 3 6 1023.2 1022.8 0.0
04/12:30pm 15.3 13.3 7.3 59 4.1 WNW 7 13 4 7 1023.7 1023.3 0.0
04/12:00pm 15.5 13.5 7.0 57 4.3 NE 7 17 4 9 1024.4 1024.0 0.0
04/11:30am 16.5 14.5 8.5 59 4.2 NE 9 15 5 8 1024.7 1024.3 0.0
04/11:00am 15.2 13.3 7.5 60 3.9 NE 7 13 4 7 1025.1 1024.8 0.0
04/10:30am 15.0 12.7 7.3 60 3.9 E 9 13 5 7 1025.6 1025.2 0.0

Other Formats:

Comma delimited format used in spreadsheet applications
http://www.bom.gov.au/fwo/IDQ60801/IDQ60801.95551.axf

JavaScript Object Notation format (JSON) in row-major order
http://www.bom.gov.au/fwo/IDQ60801/IDQ60801.95551.json